Time;durP1;ratioP1;P1;durP2;ratioP2;P2;SDS_P1;SDS_P2;PMS_P1;PMS_P2;Temp;Humidity;BMP_temperature;BMP_pressure;BME280_temperature;BME280_humidity;BME280_pressure;Samples;Min_cycle;Max_cycle;Signal;HPM_P1;HPM_P2
2020/12/28 00:00:05;;;;;;;7.60;6.80;;;2.30;99.90;;;2.89;73.41;94709.22;5230230;28;20220;-85
2020/12/28 00:02:37;;;;;;;8.80;8.00;;;2.20;99.90;;;2.89;73.56;94699.13;5225178;28;20213;-86
2020/12/28 00:05:11;;;;;;;8.57;7.77;;;2.10;99.90;;;2.86;74.51;94681.38;5215857;28;20631;-86
2020/12/28 00:07:43;;;;;;;8.30;7.60;;;2.10;99.90;;;2.89;75.46;94691.56;5228259;28;20197;-85
2020/12/28 00:10:15;;;;;;;5.13;4.73;;;2.10;99.90;;;2.81;74.77;94698.03;5224668;28;20190;-86
2020/12/28 00:12:47;;;;;;;4.70;4.40;;;2.00;99.90;;;2.69;75.39;94698.47;5216912;28;20707;-85
2020/12/28 00:15:23;;;;;;;5.07;4.70;;;2.00;99.90;;;2.65;75.98;94692.44;5232355;28;20217;-86
2020/12/28 00:17:57;;;;;;;5.80;5.30;;;1.90;99.90;;;2.64;75.86;94695.78;5228605;28;20189;-85
2020/12/28 00:20:32;;;;;;;5.50;5.00;;;1.90;99.90;;;2.65;76.72;94699.16;5211079;28;20768;-84
2020/12/28 00:23:04;;;;;;;4.97;4.57;;;1.90;99.90;;;2.67;76.18;94695.03;5211787;28;20225;-85
2020/12/28 00:25:37;;;;;;;5.37;4.97;;;1.90;99.90;;;2.54;76.32;94698.75;5219727;28;20197;-86
2020/12/28 00:28:09;;;;;;;5.33;4.93;;;1.90;99.90;;;2.57;76.53;94698.00;5224879;28;20194;-86
2020/12/28 00:30:42;;;;;;;4.87;4.57;;;1.90;99.90;;;2.56;76.98;94692.13;5232094;28;20211;-87
2020/12/28 00:33:14;;;;;;;5.33;4.90;;;1.80;99.90;;;2.63;77.04;94693.19;5229836;28;20315;-86
2020/12/28 00:35:46;;;;;;;5.53;5.13;;;1.90;99.90;;;2.64;76.60;94698.31;5233686;28;20205;-88
2020/12/28 00:38:18;;;;;;;4.33;4.03;;;1.80;99.90;;;2.71;76.40;94684.25;5233667;28;20337;-86
2020/12/28 00:40:50;;;;;;;5.10;4.80;;;1.80;99.90;;;2.60;77.46;94683.84;5234835;28;20262;-88
2020/12/28 00:43:23;;;;;;;4.70;4.37;;;1.80;99.90;;;2.54;77.74;94672.72;5235978;28;20248;-86
2020/12/28 00:45:55;;;;;;;4.73;4.40;;;1.70;99.90;;;2.56;78.19;94671.09;5244729;28;20199;-91
2020/12/28 00:48:27;;;;;;;4.33;4.03;;;1.70;99.90;;;2.57;78.35;94673.66;5234841;28;20221;-88
2020/12/28 00:50:59;;;;;;;4.53;4.13;;;1.80;99.90;;;2.56;78.92;94671.09;5221007;28;20204;-87
2020/12/28 00:53:32;;;;;;;4.53;4.13;;;1.80;99.90;;;2.56;78.46;94666.91;5230888;28;20241;-88
2020/12/28 00:56:04;;;;;;;4.60;4.30;;;1.80;99.90;;;2.54;78.56;94671.03;5210200;28;20204;-88
2020/12/28 00:58:37;;;;;;;4.40;4.13;;;1.70;99.90;;;2.55;79.04;94675.28;5209951;28;20293;-88
2020/12/28 01:01:10;;;;;;;4.70;4.40;;;1.80;99.90;;;2.60;78.34;94672.91;5225484;28;20205;-87
2020/12/28 01:03:42;;;;;;;4.60;4.30;;;1.80;99.90;;;2.54;78.24;94668.50;5216467;28;20640;-86
2020/12/28 01:06:14;;;;;;;4.77;4.33;;;1.80;99.90;;;2.67;78.58;94667.31;5210369;28;20728;-86
2020/12/28 01:08:46;;;;;;;4.30;4.00;;;1.80;99.90;;;2.68;79.38;94666.47;5210028;28;20198;-85
2020/12/28 01:11:20;;;;;;;4.80;4.43;;;1.90;99.90;;;2.62;79.29;94649.47;5210173;28;20210;-86
2020/12/28 01:13:52;;;;;;;4.47;4.10;;;1.90;99.90;;;2.60;79.75;94646.03;5219653;28;20314;-86
2020/12/28 01:16:25;;;;;;;3.73;3.53;;;2.00;99.90;;;2.78;80.76;94643.31;5230275;28;20197;-88
2020/12/28 01:18:57;;;;;;;3.90;3.60;;;2.10;99.90;;;2.79;81.11;94636.59;5231191;28;20693;-88
2020/12/28 01:21:29;;;;;;;4.13;3.83;;;2.20;99.90;;;2.79;82.40;94639.13;5221056;28;20670;-87
2020/12/28 01:24:02;;;;;;;4.57;4.17;;;2.20;99.90;;;2.82;81.73;94644.28;5212805;28;20221;-86
2020/12/28 01:26:33;;;;;;;4.60;4.30;;;2.20;99.90;;;2.84;82.87;94650.25;5230595;28;20657;-87
2020/12/28 01:29:05;;;;;;;5.20;4.80;;;2.20;99.90;;;2.85;82.31;94651.94;5231117;28;20280;-84
2020/12/28 01:31:38;;;;;;;4.90;4.57;;;2.20;99.90;;;2.78;82.75;94658.44;5233845;28;20202;-86
2020/12/28 01:34:10;;;;;;;4.70;4.40;;;2.10;99.90;;;2.79;83.11;94659.31;5234817;28;20221;-86
2020/12/28 01:36:42;;;;;;;9.40;8.50;;;2.10;99.90;;;2.78;82.72;94653.41;5231407;28;20678;-87
2020/12/28 01:39:14;;;;;;;18.90;15.47;;;2.10;99.90;;;2.87;83.50;94648.66;5214549;28;20237;-87
2020/12/28 01:41:46;;;;;;;6.43;5.83;;;2.10;99.90;;;2.97;84.06;94651.50;5213682;28;20266;-86
2020/12/28 01:44:18;;;;;;;12.63;11.57;;;2.20;99.90;;;3.14;84.40;94658.81;5213113;28;20195;-88
2020/12/28 01:46:51;;;;;;;11.17;10.23;;;2.40;99.90;;;3.17;84.55;94653.84;5213864;28;20204;-87
2020/12/28 01:49:23;;;;;;;12.13;11.13;;;2.60;99.90;;;3.36;84.77;94651.94;5231928;28;20203;-87
2020/12/28 01:52:00;;;;;;;5.80;5.30;;;2.70;99.90;;;3.44;84.65;94642.97;5225366;28;20190;-87
2020/12/28 01:54:32;;;;;;;4.53;4.23;;;2.90;99.90;;;3.51;85.03;94646.53;5225421;28;20207;-88
2020/12/28 01:57:04;;;;;;;4.30;4.10;;;3.00;99.90;;;3.69;85.12;94638.66;5213787;28;20205;-87
2020/12/28 01:59:37;;;;;;;3.60;3.40;;;3.20;99.90;;;3.84;84.53;94634.09;5213964;28;20205;-88
2020/12/28 02:02:12;;;;;;;3.50;3.30;;;3.40;99.90;;;3.99;84.22;94639.59;5223294;28;20713;-88
2020/12/28 02:04:45;;;;;;;2.80;2.70;;;3.50;99.90;;;4.17;83.45;94634.19;5228257;28;20188;-87
2020/12/28 02:07:18;;;;;;;2.63;2.53;;;3.60;99.90;;;4.20;83.42;94634.28;5212903;28;20250;-86
2020/12/28 02:09:50;;;;;;;2.43;2.33;;;3.70;99.90;;;4.37;82.79;94624.66;5226857;28;20194;-87
2020/12/28 02:12:22;;;;;;;2.60;2.50;;;3.80;99.90;;;4.45;82.57;94625.72;5234192;28;20224;-87
2020/12/28 02:14:54;;;;;;;2.60;2.40;;;3.90;99.90;;;4.68;81.46;94615.38;5219292;28;20216;-87
2020/12/28 02:17:27;;;;;;;2.83;2.67;;;4.10;99.90;;;4.74;80.71;94611.34;5216615;28;20303;-86
2020/12/28 02:19:59;;;;;;;2.73;2.53;;;4.20;99.90;;;4.86;80.69;94607.41;5228814;28;20280;-87
2020/12/28 02:22:32;;;;;;;2.00;1.90;;;4.30;99.90;;;4.89;80.53;94597.38;5212673;28;20255;-86
2020/12/28 02:25:04;;;;;;;1.90;1.80;;;4.30;99.90;;;4.90;80.40;94612.59;5217802;28;20189;-87
2020/12/28 02:27:36;;;;;;;2.10;2.00;;;4.30;99.90;;;4.86;81.15;94602.34;5232341;28;20200;-87
2020/12/28 02:30:09;;;;;;;2.23;2.13;;;4.30;99.90;;;4.88;80.68;94601.56;5225701;28;20285;-87
2020/12/28 02:32:41;;;;;;;1.90;1.87;;;4.30;99.90;;;4.85;81.11;94600.66;5219378;28;20630;-87
2020/12/28 02:35:13;;;;;;;1.90;1.90;;;4.30;99.90;;;4.82;81.31;94601.44;5233611;28;20840;-86
2020/12/28 02:37:46;;;;;;;1.83;1.73;;;4.30;99.90;;;4.78;81.35;94599.66;5219326;28;20765;-87
2020/12/28 02:40:18;;;;;;;2.10;2.10;;;4.20;99.90;;;4.74;81.91;94600.38;5222671;28;20200;-86
2020/12/28 02:42:50;;;;;;;1.93;1.83;;;4.20;99.90;;;4.69;82.42;94599.38;5232869;28;20303;-87
2020/12/28 02:45:22;;;;;;;2.23;2.13;;;4.20;99.90;;;4.63;83.68;94595.03;5228900;28;20208;-87
2020/12/28 02:47:54;;;;;;;2.13;2.03;;;4.20;99.90;;;4.61;83.48;94600.88;5216855;28;20228;-87
2020/12/28 02:50:26;;;;;;;2.17;2.17;;;4.10;99.90;;;4.59;84.23;94592.38;5212617;28;20280;-87
2020/12/28 02:52:59;;;;;;;2.50;2.30;;;4.10;99.90;;;4.58;84.80;94595.72;5228450;28;20220;-88
2020/12/28 02:55:31;;;;;;;2.13;2.03;;;4.00;99.90;;;4.50;84.01;94596.38;5227208;28;20214;-87
2020/12/28 02:58:03;;;;;;;2.33;2.23;;;3.80;99.90;;;4.29;84.46;94580.59;5219155;28;20577;-86
2020/12/28 03:00:35;;;;;;;2.40;2.30;;;3.60;99.90;;;4.21;84.77;94577.03;5214217;28;20209;-86
2020/12/28 03:03:07;;;;;;;2.00;2.00;;;3.60;99.90;;;4.17;85.43;94580.28;5214600;28;20293;-87
2020/12/28 03:05:39;;;;;;;2.20;2.10;;;3.50;99.90;;;4.13;85.73;94573.44;5214531;28;20207;-87
2020/12/28 03:08:12;;;;;;;2.33;2.23;;;3.50;99.90;;;4.15;85.40;94576.84;5222585;28;20199;-87
2020/12/28 03:10:45;;;;;;;2.27;2.17;;;3.30;99.90;;;3.95;85.96;94586.38;5234572;28;20205;-87
2020/12/28 03:13:17;;;;;;;2.20;2.10;;;3.20;99.90;;;3.89;86.13;94597.16;5235517;28;20299;-87
2020/12/28 03:15:49;;;;;;;2.13;2.13;;;3.10;99.90;;;3.84;86.14;94599.56;5236070;28;20251;-89
2020/12/28 03:18:21;;;;;;;2.23;2.13;;;3.10;99.90;;;3.75;86.74;94595.91;5235300;28;20269;-87
2020/12/28 03:20:53;;;;;;;2.60;2.40;;;3.10;99.90;;;3.73;87.41;94587.44;5236199;28;20238;-86
2020/12/28 03:23:26;;;;;;;2.60;2.50;;;3.00;99.90;;;3.83;87.47;94586.88;5231114;28;20739;-87
2020/12/28 03:25:58;;;;;;;2.63;2.43;;;3.10;99.90;;;3.82;87.17;94595.28;5215181;28;20255;-87
2020/12/28 03:28:30;;;;;;;2.77;2.57;;;3.10;99.90;;;3.72;87.48;94589.13;5219930;28;20283;-87
2020/12/28 03:31:02;;;;;;;2.83;2.73;;;3.00;99.90;;;3.69;87.51;94593.19;5214287;28;20271;-87
2020/12/28 03:33:34;;;;;;;2.47;2.37;;;3.00;99.90;;;3.65;87.27;94598.97;5220615;28;20787;-87
2020/12/28 03:36:06;;;;;;;2.73;2.63;;;2.90;99.90;;;3.59;87.73;94592.06;5225940;28;20211;-86
2020/12/28 03:38:39;;;;;;;2.37;2.20;;;2.90;99.90;;;3.53;88.83;94597.78;5221166;28;20575;-87
2020/12/28 03:41:12;;;;;;;2.13;2.07;;;2.80;99.90;;;3.58;88.04;94601.31;5236588;28;20251;-87
2020/12/28 03:43:45;;;;;;;2.43;2.33;;;2.70;99.90;;;3.52;88.14;94601.16;5237150;28;20240;-86
2020/12/28 03:46:17;;;;;;;2.37;2.27;;;2.80;99.90;;;3.41;88.22;94594.91;5236882;28;20195;-87
2020/12/28 03:48:49;;;;;;;2.90;2.70;;;2.80;99.90;;;3.43;88.98;94585.69;5239304;28;20201;-87
2020/12/28 03:51:21;;;;;;;3.30;3.10;;;2.70;99.90;;;3.38;88.78;94572.94;5231419;28;20264;-88
2020/12/28 03:53:54;;;;;;;2.90;2.80;;;2.70;99.90;;;3.35;89.00;94562.75;5219704;28;20226;-87
2020/12/28 03:56:26;;;;;;;2.40;2.30;;;2.70;99.90;;;3.33;89.30;94554.28;5228698;28;20312;-87
2020/12/28 03:58:58;;;;;;;3.63;3.43;;;2.70;99.90;;;3.47;89.43;94553.84;5234432;28;20221;-87
2020/12/28 04:01:30;;;;;;;2.97;2.77;;;2.80;99.90;;;3.41;89.04;94541.06;5235089;28;20294;-86
2020/12/28 04:04:02;;;;;;;2.73;2.63;;;2.70;99.90;;;3.43;89.51;94542.78;5228274;28;20282;-89
2020/12/28 04:06:34;;;;;;;3.07;2.97;;;2.70;99.90;;;3.38;89.43;94541.81;5229233;28;20266;-89
2020/12/28 04:11:39;;;;;;;2.60;2.50;;;2.80;99.90;;;3.43;89.74;94524.25;5240253;22;20982;-76
2020/12/28 04:14:11;;;;;;;2.90;2.70;;;2.80;99.90;;;3.44;89.80;94531.03;5220804;28;20217;-77
2020/12/28 04:16:43;;;;;;;2.73;2.63;;;2.80;99.90;;;3.49;89.94;94514.34;5223380;28;20208;-77
2020/12/28 04:19:15;;;;;;;3.47;3.27;;;2.90;99.90;;;3.54;90.15;94511.13;5209627;28;20203;-76
2020/12/28 04:21:47;;;;;;;3.70;3.40;;;2.90;99.90;;;3.60;89.64;94528.13;5208141;28;20594;-76
2020/12/28 04:24:19;;;;;;;3.00;2.90;;;2.90;99.90;;;3.71;89.40;94515.81;5224701;28;20570;-75
2020/12/28 04:26:52;;;;;;;2.57;2.47;;;3.00;99.90;;;3.77;87.80;94516.00;5223725;28;20230;-75
2020/12/28 04:29:24;;;;;;;2.43;2.30;;;3.00;99.90;;;3.67;87.38;94524.13;5222714;28;20310;-76
2020/12/28 04:31:56;;;;;;;2.87;2.70;;;2.90;99.90;;;3.50;88.65;94532.06;5223446;28;20224;-77
2020/12/28 04:34:28;;;;;;;3.17;2.97;;;2.80;99.90;;;3.48;89.02;94532.84;5224032;28;20528;-76
2020/12/28 04:37:00;;;;;;;3.00;2.80;;;2.80;99.90;;;3.48;89.31;94532.84;5224470;28;20191;-76
2020/12/28 04:39:32;;;;;;;3.00;2.90;;;2.80;99.90;;;3.46;89.22;94525.19;5224246;28;20199;-76
2020/12/28 04:42:05;;;;;;;2.93;2.73;;;2.80;99.90;;;3.45;89.72;94522.66;5218376;28;20222;-76
2020/12/28 04:44:37;;;;;;;3.27;3.07;;;2.80;99.90;;;3.50;90.10;94527.03;5223680;28;20284;-76
2020/12/28 04:47:09;;;;;;;3.40;3.20;;;2.80;99.90;;;3.52;89.50;94532.09;5223908;28;20292;-76
2020/12/28 04:49:42;;;;;;;3.13;2.93;;;2.80;99.90;;;3.52;89.69;94535.50;5206438;28;20203;-77
2020/12/28 04:52:15;;;;;;;2.97;2.87;;;2.80;99.90;;;3.60;88.83;94541.59;5225094;28;20226;-77
2020/12/28 04:54:48;;;;;;;2.90;2.70;;;2.80;99.90;;;3.51;89.02;94548.91;5222922;28;20219;-76
2020/12/28 04:57:21;;;;;;;2.57;2.47;;;2.70;99.90;;;3.49;89.20;94537.94;5223355;28;20194;-76
2020/12/28 04:59:57;;;;;;;2.40;2.30;;;2.70;99.90;;;3.44;89.65;94536.94;5222444;28;20205;-77
2020/12/28 05:02:29;;;;;;;2.63;2.53;;;2.70;99.90;;;3.42;89.86;94530.13;5223395;28;20227;-77
2020/12/28 05:05:06;;;;;;;2.17;2.07;;;2.60;99.90;;;3.39;90.32;94528.38;5225969;28;20198;-77
2020/12/28 05:07:38;;;;;;;2.90;2.70;;;2.60;99.90;;;3.44;90.41;94526.84;5227535;28;20203;-76
2020/12/28 05:10:21;;;;;;;2.37;2.27;;;2.60;99.90;;;3.45;89.31;94522.66;5214119;28;20693;-75
2020/12/28 05:12:54;;;;;;;2.33;2.23;;;2.50;99.90;;;3.31;89.97;94517.19;5227444;28;20391;-76
2020/12/28 05:15:26;;;;;;;2.60;2.50;;;2.50;99.90;;;3.27;90.25;94513.72;5226959;28;20223;-74
2020/12/28 05:17:58;;;;;;;3.30;3.20;;;2.50;99.90;;;3.26;90.34;94511.13;5222521;28;20609;-75
2020/12/28 05:20:31;;;;;;;3.40;3.17;;;2.50;99.90;;;3.29;90.85;94501.13;5207420;28;20261;-74
2020/12/28 05:23:07;;;;;;;2.80;2.70;;;2.60;99.90;;;3.32;90.86;94496.16;5228300;28;20201;-77
2020/12/28 05:25:43;;;;;;;2.97;2.77;;;2.60;99.90;;;3.26;91.16;94491.81;5219892;28;20219;-76
2020/12/28 05:28:20;;;;;;;2.50;2.40;;;2.60;99.90;;;3.30;91.22;94488.56;5228030;28;20203;-76
2020/12/28 05:30:53;;;;;;;2.60;2.50;;;2.60;99.90;;;3.44;90.95;94483.94;5227022;28;20698;-76
2020/12/28 05:33:31;;;;;;;3.10;2.90;;;2.60;99.90;;;3.38;90.80;94491.34;5215662;28;20199;-77
2020/12/28 05:36:03;;;;;;;2.40;2.30;;;2.60;99.90;;;3.37;90.45;94485.41;5228360;28;20580;-76
2020/12/28 05:38:36;;;;;;;3.20;3.00;;;2.50;99.90;;;3.22;90.15;94486.63;5226592;28;20204;-76
2020/12/28 05:41:08;;;;;;;2.70;2.60;;;2.40;99.90;;;3.19;90.45;94481.50;5217967;28;20225;-75
2020/12/28 05:43:47;;;;;;;3.37;3.17;;;2.50;99.90;;;3.15;91.59;94488.97;5226245;28;20208;-75
2020/12/28 05:46:23;;;;;;;4.20;3.90;;;2.50;99.90;;;3.23;91.12;94495.91;5227300;28;20199;-77
2020/12/28 05:48:56;;;;;;;3.30;3.10;;;2.50;99.90;;;3.17;91.64;94497.41;5221179;28;20246;-77
2020/12/28 05:51:28;;;;;;;3.37;3.17;;;2.50;99.90;;;3.24;91.68;94500.16;5225959;28;20682;-77
2020/12/28 05:54:11;;;;;;;3.60;3.37;;;2.50;99.90;;;3.28;91.98;94500.28;5226551;28;20641;-76
2020/12/28 05:56:43;;;;;;;3.80;3.50;;;2.60;99.90;;;3.28;91.90;94512.91;5218254;28;20201;-76
2020/12/28 05:59:16;;;;;;;3.40;3.20;;;2.60;99.90;;;3.28;91.33;94519.63;5226683;28;20660;-77
2020/12/28 06:01:49;;;;;;;4.00;3.80;;;2.50;99.90;;;3.23;91.87;94516.09;5227318;28;20229;-78
2020/12/28 06:04:22;;;;;;;4.30;3.87;;;2.50;99.90;;;3.30;91.65;94512.97;5223298;28;20227;-76
2020/12/28 06:06:58;;;;;;;4.00;3.70;;;2.60;99.90;;;3.24;91.52;94521.19;5226990;28;20196;-76
2020/12/28 06:09:30;;;;;;;3.97;3.67;;;2.60;99.90;;;3.19;92.22;94519.34;5226552;28;20216;-76
2020/12/28 06:12:03;;;;;;;4.53;4.23;;;2.60;99.90;;;3.20;92.36;94526.09;5207216;28;20225;-76
2020/12/28 06:14:38;;;;;;;4.33;3.93;;;2.60;99.90;;;3.19;92.62;94525.25;5206080;28;20229;-76
2020/12/28 06:17:12;;;;;;;3.87;3.57;;;2.60;99.90;;;3.28;92.88;94530.56;5206613;28;20295;-76
2020/12/28 06:19:44;;;;;;;4.20;3.77;;;2.60;99.90;;;3.23;93.05;94531.22;5218295;28;20204;-76
2020/12/28 06:22:20;;;;;;;4.23;3.93;;;2.60;99.90;;;3.27;93.14;94538.94;5226731;28;20680;-75
2020/12/28 06:25:00;;;;;;;3.70;3.50;;;2.60;99.90;;;3.29;92.87;94524.72;5224950;28;20195;-75
2020/12/28 06:27:34;;;;;;;3.47;3.27;;;2.60;99.90;;;3.28;93.46;94534.75;5226496;28;20195;-76
2020/12/28 06:30:12;;;;;;;3.40;3.20;;;2.70;99.90;;;3.36;92.89;94521.56;5225896;28;20186;-75
2020/12/28 06:32:46;;;;;;;3.77;3.47;;;2.70;99.90;;;3.36;94.03;94528.28;5226540;28;20230;-76
2020/12/28 06:35:18;;;;;;;3.73;3.43;;;2.80;99.90;;;3.36;93.66;94520.72;5225182;28;20267;-76
2020/12/28 06:37:53;;;;;;;3.50;3.40;;;2.80;99.90;;;3.40;94.02;94525.03;5225692;28;20214;-77
2020/12/28 06:40:31;;;;;;;3.60;3.40;;;2.80;99.90;;;3.45;94.04;94528.53;5220818;28;20626;-77
2020/12/28 06:43:11;;;;;;;4.50;4.20;;;2.90;99.90;;;3.51;94.12;94532.91;5226324;28;20195;-76
2020/12/28 06:45:48;;;;;;;4.13;3.87;;;2.80;99.90;;;3.49;93.92;94532.91;5227555;28;20204;-77
2020/12/28 06:48:23;;;;;;;4.30;4.00;;;2.80;99.90;;;3.48;94.21;94528.63;5247463;28;20194;-77
2020/12/28 06:51:06;;;;;;;4.20;3.87;;;2.90;99.90;;;3.49;94.41;94535.41;5235912;28;20733;-78
2020/12/28 06:53:39;;;;;;;4.70;4.40;;;2.90;99.90;;;3.58;95.40;94540.72;5225874;28;20204;-79
2020/12/28 06:56:11;;;;;;;4.27;3.97;;;2.90;99.90;;;3.56;95.08;94527.19;5225207;28;20224;-78
2020/12/28 06:58:43;;;;;;;4.63;4.33;;;2.90;99.90;;;3.56;94.92;94529.72;5226786;28;20691;-78
2020/12/28 07:01:17;;;;;;;6.07;4.87;;;2.80;99.90;;;3.42;93.78;94525.09;5226938;28;20243;-78
2020/12/28 07:03:54;;;;;;;4.83;4.53;;;2.60;99.90;;;3.32;93.96;94506.25;5229161;28;20334;-78
2020/12/28 07:06:26;;;;;;;4.97;4.57;;;2.60;99.90;;;3.27;94.73;94517.91;5232437;28;20201;-78
2020/12/28 07:09:07;;;;;;;5.43;4.93;;;2.60;99.90;;;3.29;94.95;94521.31;5232574;28;20199;-78
2020/12/28 07:11:39;;;;;;;6.63;6.13;;;2.60;99.90;;;3.28;95.62;94523.00;5227625;28;20311;-78
2020/12/28 07:14:11;;;;;;;5.53;5.03;;;2.50;99.90;;;3.24;95.99;94522.88;5227403;28;20194;-78
2020/12/28 07:16:44;;;;;;;7.00;6.43;;;2.50;99.90;;;3.20;96.18;94526.09;5226087;28;20217;-78
2020/12/28 07:19:17;;;;;;;11.10;9.93;;;2.50;99.90;;;3.18;96.17;94518.50;5226147;28;20482;-79
2020/12/28 07:21:49;;;;;;;13.03;11.67;;;2.50;99.90;;;3.25;96.80;94514.47;5225935;28;20304;-77
2020/12/28 07:24:21;;;;;;;11.80;10.37;;;2.50;99.90;;;3.24;97.18;94502.69;5225746;28;20286;-78
2020/12/28 07:26:55;;;;;;;11.77;10.27;;;2.60;99.90;;;3.25;97.18;94509.44;5223203;28;20220;-77
2020/12/28 07:29:27;;;;;;;8.80;7.87;;;2.60;99.90;;;3.26;97.17;94516.19;5222488;28;20280;-77
2020/12/28 07:32:04;;;;;;;7.83;7.13;;;2.70;99.90;;;3.36;97.64;94518.19;5223062;28;20235;-77
2020/12/28 07:34:36;;;;;;;7.40;6.70;;;2.70;99.90;;;3.38;97.41;94512.38;5222606;28;20281;-77
2020/12/28 07:37:08;;;;;;;5.80;5.30;;;2.70;99.90;;;3.44;98.08;94504.13;5223492;28;20198;-77
2020/12/28 07:39:42;;;;;;;6.13;5.73;;;2.80;99.90;;;3.36;97.42;94505.56;5223097;28;20288;-77
2020/12/28 07:42:19;;;;;;;6.17;5.70;;;2.70;99.90;;;3.38;97.64;94496.38;5211043;28;20245;-77
2020/12/28 07:44:54;;;;;;;5.10;4.73;;;2.80;99.90;;;3.43;98.05;94492.28;5222789;28;20565;-77
2020/12/28 07:47:40;;;;;;;5.87;5.47;;;2.80;99.90;;;3.38;97.01;94491.34;5223446;28;20288;-77
2020/12/28 07:50:15;;;;;;;5.97;5.57;;;2.80;99.90;;;3.41;97.92;94493.09;5222606;28;20270;-77
2020/12/28 07:52:57;;;;;;;6.03;5.63;;;2.80;99.90;;;3.43;98.28;94483.88;5223421;28;20221;-77
2020/12/28 07:55:39;;;;;;;5.90;5.50;;;2.80;99.90;;;3.47;98.13;94470.53;5222729;28;20219;-77
2020/12/28 07:58:22;;;;;;;5.87;5.47;;;2.90;99.90;;;3.51;98.75;94463.09;5224723;28;20199;-79
2020/12/28 08:00:57;;;;;;;9.10;7.57;;;2.90;99.90;;;3.51;98.77;94437.84;5222729;28;20219;-78
2020/12/28 08:03:37;;;;;;;8.27;7.40;;;2.90;99.90;;;3.63;99.13;94396.06;5233413;28;20688;-77
2020/12/28 08:06:10;;;;;;;8.43;7.20;;;3.00;99.90;;;3.70;98.64;94397.97;5227239;28;20276;-78
2020/12/28 08:08:42;;;;;;;7.20;6.60;;;3.00;99.90;;;3.64;98.20;94438.19;5231674;28;20284;-80
2020/12/28 08:11:23;;;;;;;7.37;6.67;;;3.00;99.90;;;3.83;96.68;94451.38;5234945;28;20901;-79
2020/12/28 08:13:55;;;;;;;9.07;8.30;;;3.10;99.90;;;3.89;96.39;94468.34;5229263;28;20230;-78
2020/12/28 08:16:28;;;;;;;8.00;7.30;;;3.00;99.90;;;3.68;96.20;94483.75;5232642;28;20259;-79
2020/12/28 08:19:04;;;;;;;6.53;5.93;;;2.90;99.90;;;3.54;96.98;94492.63;5225798;28;20225;-80
2020/12/28 08:21:41;;;;;;;7.27;6.67;;;2.80;99.90;;;3.67;96.89;94484.59;5230055;28;20293;-78
2020/12/28 08:24:18;;;;;;;7.87;7.07;;;2.90;99.90;;;3.51;97.19;94479.91;5230745;28;20725;-76
2020/12/28 08:26:51;;;;;;;8.93;8.13;;;2.80;99.90;;;3.41;97.85;94466.19;5225338;28;20223;-77
2020/12/28 08:29:23;;;;;;;8.23;7.60;;;2.80;99.90;;;3.43;97.75;94477.16;5223903;28;20672;-77
2020/12/28 08:31:59;;;;;;;7.97;7.27;;;2.80;99.90;;;3.47;97.62;94476.44;5224692;28;20221;-74
2020/12/28 08:34:34;;;;;;;8.20;7.60;;;2.80;99.90;;;3.42;96.91;94485.53;5221484;28;20690;-75
2020/12/28 08:37:06;;;;;;;7.30;6.67;;;2.80;99.90;;;3.70;97.50;94488.88;5221609;28;20193;-75
2020/12/28 08:39:38;;;;;;;7.27;6.57;;;2.90;99.90;;;3.48;96.65;94493.28;5217479;28;20207;-76
2020/12/28 08:42:10;;;;;;;6.83;6.33;;;2.80;99.90;;;3.49;97.26;94489.97;5217213;28;20228;-75
2020/12/28 08:44:42;;;;;;;8.70;7.80;;;2.80;99.90;;;3.47;97.75;94490.75;5221189;28;20195;-75
2020/12/28 08:47:15;;;;;;;7.10;6.50;;;2.80;99.90;;;3.48;97.45;94498.34;5225177;28;20403;-75
2020/12/28 08:49:49;;;;;;;7.73;7.13;;;2.80;99.90;;;3.44;97.51;94506.66;5207643;28;20294;-75
2020/12/28 08:52:23;;;;;;;7.97;7.27;;;2.80;99.90;;;3.45;98.05;94508.34;5225138;28;20225;-75
2020/12/28 08:54:56;;;;;;;8.93;8.13;;;2.80;99.90;;;3.45;97.60;94500.78;5224460;28;20220;-75
2020/12/28 08:57:30;;;;;;;8.93;8.13;;;2.80;99.90;;;3.43;98.25;94515.00;5224918;28;20198;-76
2020/12/28 09:00:04;;;;;;;8.77;7.97;;;2.80;99.90;;;3.46;98.74;94510.06;5224319;28;20189;-76
2020/12/28 09:02:37;;;;;;;9.83;8.93;;;2.90;99.90;;;3.60;98.83;94521.41;5223773;28;20217;-75
2020/12/28 09:05:10;;;;;;;15.87;9.40;;;2.90;99.90;;;3.72;98.45;94512.47;5223741;28;20197;-76
2020/12/28 09:07:42;;;;;;;9.23;8.33;;;3.00;99.90;;;3.65;98.29;94518.19;5225070;28;20789;-75
2020/12/28 09:10:15;;;;;;;9.60;8.67;;;3.00;99.90;;;3.65;98.48;94510.59;5223199;28;20300;-75
2020/12/28 09:12:47;;;;;;;33.20;27.83;;;3.00;99.90;;;3.66;98.94;94514.84;5212585;28;20618;-77
2020/12/28 09:15:19;;;;;;;14.63;13.13;;;3.00;99.90;;;3.71;99.21;94519.19;5225040;28;20590;-74
2020/12/28 09:17:51;;;;;;;10.40;9.40;;;3.10;99.90;;;3.77;99.76;94526.09;5224466;28;20559;-76
2020/12/28 09:20:24;;;;;;;9.93;9.03;;;3.10;99.90;;;3.79;99.49;94530.38;5215991;28;20194;-76
2020/12/28 09:22:56;;;;;;;10.03;9.03;;;3.10;99.90;;;3.80;99.23;94521.13;5224245;28;20290;-75
2020/12/28 09:25:28;;;;;;;9.60;8.70;;;3.10;99.90;;;3.80;99.28;94514.41;5223667;28;20195;-76
2020/12/28 09:28:00;;;;;;;9.80;9.00;;;3.10;99.90;;;3.87;99.93;94524.72;5224505;28;20196;-76
2020/12/28 09:30:32;;;;;;;9.97;9.07;;;3.20;99.90;;;3.94;99.79;94527.44;5223842;28;20213;-77
2020/12/28 09:33:04;;;;;;;10.10;9.10;;;3.20;99.90;;;3.95;99.90;94531.69;5222929;28;20214;-77
2020/12/28 09:35:38;;;;;;;9.50;8.60;;;3.30;99.90;;;3.94;99.84;94522.38;5223851;28;20727;-76
2020/12/28 09:38:10;;;;;;;9.73;8.93;;;3.30;99.90;;;3.95;100.00;94524.09;5224233;28;20510;-76
2020/12/28 09:40:42;;;;;;;9.67;8.77;;;3.30;99.90;;;3.98;100.00;94523.34;5224123;28;20209;-76
2020/12/28 09:43:18;;;;;;;9.60;8.80;;;3.30;99.90;;;3.98;99.95;94516.63;5223556;28;20547;-76
2020/12/28 09:45:50;;;;;;;10.30;9.33;;;3.30;99.90;;;4.06;100.00;94519.31;5223702;28;20601;-76
2020/12/28 09:48:21;;;;;;;9.43;8.53;;;3.40;99.90;;;4.10;100.00;94511.03;5221545;28;20318;-76
2020/12/28 09:50:54;;;;;;;10.40;9.57;;;3.40;99.90;;;4.17;100.00;94509.53;5222048;28;20578;-76
2020/12/28 09:53:26;;;;;;;9.23;8.43;;;3.40;99.90;;;4.18;100.00;94507.03;5222884;28;20223;-76
2020/12/28 09:55:59;;;;;;;10.00;9.10;;;3.50;99.90;;;4.20;100.00;94507.91;5224179;28;20221;-76
2020/12/28 09:58:32;;;;;;;11.63;10.53;;;3.50;99.90;;;4.25;100.00;94503.00;5223106;28;20683;-76
2020/12/28 10:01:06;;;;;;;11.13;9.93;;;3.60;99.90;;;4.26;100.00;94508.09;5222927;28;20237;-77
2020/12/28 10:03:38;;;;;;;11.20;10.20;;;3.60;99.90;;;4.21;99.36;94493.63;5223030;28;20203;-76
2020/12/28 10:09:03;;;;;;;12.13;10.93;;;3.50;99.90;;;4.21;99.86;94488.59;5211087;28;20204;-77
2020/12/28 10:11:35;;;;;;;10.87;9.77;;;3.50;99.90;;;4.17;99.77;94489.28;5223669;28;20232;-78
2020/12/28 10:14:07;;;;;;;11.47;10.47;;;3.50;99.90;;;4.21;100.00;94484.38;5223823;28;20214;-77
2020/12/28 10:16:39;;;;;;;11.03;10.03;;;3.50;99.90;;;4.23;100.00;94479.34;5222161;28;20225;-77
2020/12/28 10:19:11;;;;;;;11.73;10.53;;;3.50;99.90;;;4.25;100.00;94472.66;5222916;28;20189;-76
2020/12/28 10:21:44;;;;;;;11.43;10.43;;;3.50;99.90;;;4.22;100.00;94475.13;5222665;28;20692;-76
2020/12/28 10:24:16;;;;;;;12.47;11.37;;;3.50;99.90;;;4.24;100.00;94478.56;5223791;28;20657;-76
2020/12/28 10:26:52;;;;;;;11.67;10.67;;;3.50;99.90;;;4.27;100.00;94473.56;5222880;28;20202;-75
2020/12/28 10:29:24;;;;;;;11.97;10.97;;;3.50;99.90;;;4.27;100.00;94474.41;5222803;28;20398;-77
2020/12/28 10:31:57;;;;;;;12.00;10.90;;;3.50;99.90;;;4.29;100.00;94470.28;5222249;28;20315;-77
2020/12/28 10:34:29;;;;;;;11.57;10.57;;;3.60;99.90;;;4.42;100.00;94443.63;5213824;28;20232;-79
2020/12/28 10:37:02;;;;;;;12.07;11.07;;;3.60;99.90;;;4.32;100.00;94429.06;5222123;28;20619;-78
2020/12/28 10:39:34;;;;;;;12.97;11.87;;;3.60;99.90;;;4.32;100.00;94421.47;5223199;28;20692;-76
2020/12/28 10:42:06;;;;;;;11.33;10.43;;;3.50;99.90;;;4.27;99.88;94428.94;5220972;28;20227;-76
2020/12/28 10:44:38;;;;;;;12.70;11.57;;;3.50;99.90;;;4.33;100.00;94428.22;5222452;28;20193;-75
2020/12/28 10:47:10;;;;;;;11.50;10.50;;;3.50;99.90;;;4.36;100.00;94428.28;5221124;28;20627;-76
2020/12/28 10:49:42;;;;;;;11.60;10.40;;;3.50;99.90;;;4.34;100.00;94414.75;5222073;28;20292;-76
2020/12/28 10:52:16;;;;;;;11.53;10.43;;;3.60;99.90;;;4.32;100.00;94413.88;5223125;28;20220;-76
2020/12/28 10:54:48;;;;;;;12.73;11.67;;;3.50;99.90;;;4.34;100.00;94417.28;5222563;28;20299;-75
2020/12/28 10:57:20;;;;;;;14.43;12.40;;;3.50;99.90;;;4.40;100.00;94425.00;5221189;28;20311;-74
2020/12/28 10:59:52;;;;;;;14.27;12.90;;;3.50;99.90;;;4.37;99.98;94427.47;5216700;28;20615;-76